Time;durP1;ratioP1;P1;durP2;ratioP2;P2;SDS_P1;SDS_P2;PMS_P1;PMS_P2;Temp;Humidity;BMP_temperature;BMP_pressure;BME280_temperature;BME280_humidity;BME280_pressure;Samples;Min_cycle;Max_cycle;Signal;HPM_P1;HPM_P2
2023/04/21 00:00:06;;;;;;;22.45;12.43;;;10.90;73.30;;;;;;4983743;28;20106;-70
2023/04/21 00:02:38;;;;;;;22.10;12.30;;;10.90;73.20;;;;;;4970697;28;20066;-69
2023/04/21 00:05:08;;;;;;;22.50;12.15;;;10.90;73.40;;;;;;4972490;28;20085;-69
2023/04/21 00:07:36;;;;;;;18.67;11.15;;;10.90;73.50;;;;;;4985244;28;20051;-69
2023/04/21 00:10:04;;;;;;;20.73;11.75;;;10.90;73.50;;;;;;4971111;28;20137;-69
2023/04/21 00:12:31;;;;;;;21.40;12.07;;;10.80;73.50;;;;;;5004968;28;20054;-69
2023/04/21 00:14:58;;;;;;;19.33;11.57;;;10.80;73.50;;;;;;4987600;28;20117;-69
2023/04/21 00:17:25;;;;;;;20.45;10.65;;;10.80;73.50;;;;;;4988401;28;20425;-69
2023/04/21 00:19:53;;;;;;;19.80;10.73;;;10.80;73.40;;;;;;4989213;28;20054;-69
2023/04/21 00:22:21;;;;;;;21.45;12.20;;;10.80;73.50;;;;;;4985255;28;20604;-69
2023/04/21 00:24:48;;;;;;;20.40;11.13;;;10.70;73.50;;;;;;4987682;28;20051;-69
2023/04/21 00:27:15;;;;;;;18.60;11.33;;;10.70;73.60;;;;;;4989492;28;20539;-69
2023/04/21 00:29:42;;;;;;;19.38;11.27;;;10.70;73.50;;;;;;4987353;28;20058;-69
2023/04/21 00:32:09;;;;;;;18.15;10.38;;;10.70;73.60;;;;;;4986148;28;20053;-70
2023/04/21 00:34:37;;;;;;;19.15;10.48;;;10.60;73.70;;;;;;4971597;28;20047;-69
2023/04/21 00:37:05;;;;;;;19.75;10.43;;;10.60;73.60;;;;;;4987626;28;20732;-69
2023/04/21 00:39:32;;;;;;;19.07;10.70;;;10.50;73.70;;;;;;5003246;28;20058;-69
2023/04/21 00:42:00;;;;;;;19.45;10.50;;;10.50;73.80;;;;;;5004024;28;20131;-69
2023/04/21 00:44:28;;;;;;;20.65;10.60;;;10.50;73.80;;;;;;5004127;28;20050;-69
2023/04/21 00:46:55;;;;;;;16.25;9.98;;;10.40;73.70;;;;;;5003975;28;20130;-69
2023/04/21 00:49:24;;;;;;;15.93;10.38;;;10.40;73.80;;;;;;4987001;28;20162;-69
2023/04/21 00:51:51;;;;;;;18.03;10.23;;;10.40;73.80;;;;;;4986056;28;20182;-69
2023/04/21 00:54:20;;;;;;;17.70;9.43;;;10.40;73.90;;;;;;4988013;28;20051;-69
2023/04/21 00:56:47;;;;;;;17.88;9.88;;;10.40;74.10;;;;;;4988975;28;20610;-70
2023/04/21 00:59:14;;;;;;;18.10;10.50;;;10.30;74.00;;;;;;5001059;28;20513;-69
2023/04/21 01:01:41;;;;;;;18.85;9.55;;;10.30;73.90;;;;;;4962428;28;20055;-69
2023/04/21 01:04:09;;;;;;;20.30;10.13;;;10.30;73.90;;;;;;4966676;28;20089;-69
2023/04/21 01:06:37;;;;;;;17.05;10.13;;;10.20;74.00;;;;;;4987406;28;20157;-69
2023/04/21 01:09:04;;;;;;;15.80;9.18;;;10.20;74.10;;;;;;4981422;28;20581;-69
2023/04/21 01:11:33;;;;;;;17.58;9.45;;;10.20;74.10;;;;;;4979068;28;20070;-69
2023/04/21 01:14:00;;;;;;;17.58;9.88;;;10.20;74.20;;;;;;4967858;28;20049;-69
2023/04/21 01:16:28;;;;;;;16.90;9.13;;;10.10;74.30;;;;;;4981122;28;20050;-69
2023/04/21 01:18:55;;;;;;;17.25;9.55;;;10.10;74.30;;;;;;5003171;28;20516;-69
2023/04/21 01:21:22;;;;;;;19.90;10.38;;;10.10;74.30;;;;;;5003821;28;20409;-69
2023/04/21 01:23:50;;;;;;;15.88;8.70;;;10.10;74.30;;;;;;4984364;28;20062;-69
2023/04/21 01:26:18;;;;;;;20.88;10.48;;;10.00;74.50;;;;;;4974218;28;20430;-69
2023/04/21 01:28:46;;;;;;;15.00;8.80;;;10.00;74.50;;;;;;4968062;28;20128;-69
2023/04/21 01:31:13;;;;;;;18.38;9.70;;;10.00;74.60;;;;;;4978780;28;20066;-69
2023/04/21 01:33:41;;;;;;;16.42;9.15;;;10.00;74.70;;;;;;4987676;28;20504;-70
2023/04/21 01:36:08;;;;;;;16.05;8.93;;;10.00;74.60;;;;;;4977512;28;20043;-69
2023/04/21 01:38:38;;;;;;;16.00;9.00;;;10.00;74.60;;;;;;5003240;28;20138;-69
2023/04/21 01:41:07;;;;;;;19.07;9.03;;;9.90;74.70;;;;;;5002376;28;20134;-69
2023/04/21 01:43:34;;;;;;;16.25;9.35;;;10.00;74.70;;;;;;5001015;28;20117;-69
2023/04/21 01:46:01;;;;;;;16.23;9.38;;;9.90;74.70;;;;;;4987036;28;20532;-69
2023/04/21 01:48:27;;;;;;;17.60;9.25;;;9.90;74.70;;;;;;5003389;28;20609;-69
2023/04/21 01:50:54;;;;;;;17.23;9.73;;;9.90;74.70;;;;;;4983864;28;20054;-69
2023/04/21 01:53:21;;;;;;;15.70;9.50;;;9.90;74.80;;;;;;4983941;28;20118;-69
2023/04/21 01:55:48;;;;;;;18.17;8.98;;;9.90;74.80;;;;;;4970707;28;20138;-69
2023/04/21 01:58:17;;;;;;;19.60;9.85;;;9.90;74.70;;;;;;4967645;28;20051;-69
2023/04/21 02:00:43;;;;;;;15.57;8.80;;;9.90;74.80;;;;;;4968782;28;20216;-70
2023/04/21 02:03:10;;;;;;;16.80;9.60;;;9.90;74.80;;;;;;4967100;28;20101;-69
2023/04/21 02:05:38;;;;;;;16.47;10.20;;;10.00;74.80;;;;;;4955531;28;20051;-69
2023/04/21 02:08:05;;;;;;;16.42;9.07;;;10.00;74.70;;;;;;4986511;28;20062;-70
2023/04/21 02:10:32;;;;;;;14.68;8.57;;;10.00;74.60;;;;;;4985969;28;20141;-69
2023/04/21 02:12:59;;;;;;;16.55;8.70;;;10.00;74.60;;;;;;4988259;28;20153;-69
2023/04/21 02:15:28;;;;;;;14.95;9.45;;;10.00;74.50;;;;;;4986557;28;20050;-70
2023/04/21 02:17:55;;;;;;;16.17;8.33;;;10.00;74.50;;;;;;4984125;28;20505;-69
2023/04/21 02:20:25;;;;;;;16.20;9.18;;;10.00;74.50;;;;;;4987418;28;20057;-70
2023/04/21 02:22:52;;;;;;;15.75;8.57;;;10.00;74.50;;;;;;4982525;28;20884;-69
2023/04/21 02:25:19;;;;;;;15.60;8.43;;;10.00;74.50;;;;;;4968098;28;20139;-69
2023/04/21 02:27:46;;;;;;;16.05;8.55;;;10.00;74.50;;;;;;4987968;28;20062;-69
2023/04/21 02:30:13;;;;;;;14.87;8.70;;;10.00;74.50;;;;;;5002366;28;20513;-69
2023/04/21 02:32:43;;;;;;;16.05;9.07;;;10.00;74.50;;;;;;4968567;28;20047;-69
2023/04/21 02:35:11;;;;;;;15.73;8.70;;;10.00;74.50;;;;;;4950857;28;20051;-69
2023/04/21 02:37:38;;;;;;;13.75;8.43;;;9.90;74.50;;;;;;4986449;28;20066;-69
2023/04/21 02:40:06;;;;;;;16.05;8.43;;;9.90;74.60;;;;;;4969474;28;20051;-69
2023/04/21 02:42:34;;;;;;;14.97;8.83;;;9.90;74.60;;;;;;5002580;28;20051;-69
2023/04/21 02:45:00;;;;;;;17.88;8.70;;;9.80;74.70;;;;;;4986240;28;20151;-69
2023/04/21 02:47:27;;;;;;;17.25;8.18;;;9.80;74.80;;;;;;5002694;28;20162;-69
2023/04/21 02:49:56;;;;;;;14.60;7.90;;;9.80;74.70;;;;;;4985805;28;20141;-69
2023/04/21 02:52:23;;;;;;;15.82;7.45;;;9.80;74.70;;;;;;4998708;28;20043;-69
2023/04/21 02:54:50;;;;;;;12.13;7.13;;;9.80;74.80;;;;;;4984525;28;20051;-69
2023/04/21 02:57:17;;;;;;;14.75;8.25;;;9.80;75.00;;;;;;4985923;28;20188;-69
2023/04/21 02:59:44;;;;;;;15.35;8.48;;;9.70;74.90;;;;;;4985160;28;20062;-69
2023/04/21 03:02:11;;;;;;;16.85;8.48;;;9.70;75.00;;;;;;4985507;28;20136;-69
2023/04/21 03:04:38;;;;;;;16.38;8.48;;;9.70;75.00;;;;;;4986164;28;20046;-69
2023/04/21 03:07:12;;;;;;;16.70;9.30;;;9.70;75.10;;;;;;5002341;28;20584;-69
2023/04/21 03:09:39;;;;;;;15.20;9.00;;;9.60;75.30;;;;;;5002172;28;20061;-69
2023/04/21 03:12:06;;;;;;;14.15;8.65;;;9.60;75.30;;;;;;4983612;28;20059;-69
2023/04/21 03:14:33;;;;;;;14.65;7.90;;;9.60;75.30;;;;;;4987447;28;20053;-69
2023/04/21 03:17:01;;;;;;;17.55;8.70;;;9.60;75.40;;;;;;4985843;28;20051;-69
2023/04/21 03:19:31;;;;;;;19.87;8.93;;;9.60;75.30;;;;;;4985636;28;20055;-70
2023/04/21 03:21:58;;;;;;;15.05;8.40;;;9.60;75.50;;;;;;5001877;28;20043;-69
2023/04/21 03:24:27;;;;;;;14.63;7.22;;;9.60;75.50;;;;;;4986428;28;20055;-69
2023/04/21 03:26:55;;;;;;;13.38;7.45;;;9.60;75.50;;;;;;4982847;28;20130;-69
2023/04/21 03:29:22;;;;;;;15.43;8.00;;;9.60;75.40;;;;;;4995449;28;20130;-69
2023/04/21 03:31:49;;;;;;;15.63;7.40;;;9.60;75.50;;;;;;4985885;28;20222;-69
2023/04/21 03:34:16;;;;;;;14.45;8.88;;;9.60;75.40;;;;;;4988285;28;20051;-70
2023/04/21 03:36:43;;;;;;;14.98;8.18;;;9.60;75.40;;;;;;5005368;28;20496;-69
2023/04/21 03:39:10;;;;;;;18.17;8.75;;;9.60;75.50;;;;;;5004774;28;20061;-69
2023/04/21 03:41:39;;;;;;;15.20;7.97;;;9.60;75.50;;;;;;4988526;28;20645;-69
2023/04/21 03:44:06;;;;;;;14.67;8.20;;;9.60;75.60;;;;;;4988876;28;20158;-69
2023/04/21 03:46:33;;;;;;;15.35;7.60;;;9.60;75.50;;;;;;4986680;28;20118;-69
2023/04/21 03:49:00;;;;;;;16.63;9.23;;;9.60;75.60;;;;;;5004774;28;20051;-69
2023/04/21 03:51:27;;;;;;;15.73;7.97;;;9.60;75.70;;;;;;4988382;28;20631;-69
2023/04/21 03:53:54;;;;;;;17.17;8.55;;;9.60;75.70;;;;;;4990371;28;20047;-69
2023/04/21 03:56:20;;;;;;;16.90;8.53;;;9.60;75.70;;;;;;4988707;28;20748;-69
2023/04/21 03:58:49;;;;;;;16.17;7.47;;;9.60;75.70;;;;;;4989655;28;20512;-69
2023/04/21 04:01:16;;;;;;;16.40;8.93;;;9.60;75.90;;;;;;4989144;28;20062;-69
2023/04/21 04:03:43;;;;;;;16.33;7.78;;;9.50;75.90;;;;;;4986227;28;20049;-69
2023/04/21 04:06:10;;;;;;;16.13;7.90;;;9.50;76.00;;;;;;4988697;28;20046;-69
2023/04/21 04:08:37;;;;;;;15.63;8.23;;;9.50;76.00;;;;;;4987907;28;20053;-69
2023/04/21 04:11:04;;;;;;;15.32;8.00;;;9.50;76.20;;;;;;4988271;28;20112;-69
2023/04/21 04:13:31;;;;;;;13.25;7.90;;;9.50;76.10;;;;;;4977127;28;20543;-69
2023/04/21 04:16:00;;;;;;;16.08;7.88;;;9.40;76.20;;;;;;4974225;28;20055;-69
2023/04/21 04:18:26;;;;;;;15.90;8.82;;;9.40;76.30;;;;;;4988377;28;20055;-69
2023/04/21 04:20:53;;;;;;;16.70;8.83;;;9.40;76.20;;;;;;4980075;28;20055;-69
2023/04/21 04:23:20;;;;;;;15.88;8.73;;;9.40;76.40;;;;;;4981450;28;20055;-69
2023/04/21 04:25:48;;;;;;;14.75;8.57;;;9.40;76.50;;;;;;4982166;28;20055;-69
2023/04/21 04:28:15;;;;;;;16.75;8.10;;;9.40;76.40;;;;;;4971339;28;20576;-69
2023/04/21 04:30:42;;;;;;;15.18;8.02;;;9.40;76.20;;;;;;4988672;28;20055;-69
2023/04/21 04:33:11;;;;;;;14.13;8.00;;;9.40;76.40;;;;;;4989484;28;20781;-69
2023/04/21 04:35:38;;;;;;;16.88;8.27;;;9.40;76.40;;;;;;4987664;28;20055;-69
2023/04/21 04:38:06;;;;;;;14.77;8.18;;;9.40;76.50;;;;;;4986689;28;20251;-69
2023/04/21 04:40:33;;;;;;;15.80;8.00;;;9.40;76.40;;;;;;4986856;28;20075;-70
2023/04/21 04:43:01;;;;;;;16.65;8.00;;;9.30;76.40;;;;;;4988840;28;20055;-69
2023/04/21 04:45:31;;;;;;;14.77;8.60;;;9.30;76.50;;;;;;4986654;28;20077;-69
2023/04/21 04:47:58;;;;;;;14.55;8.40;;;9.30;76.50;;;;;;4989226;28;20058;-69
2023/04/21 04:50:27;;;;;;;16.23;8.43;;;9.30;76.60;;;;;;4987039;28;20061;-69
2023/04/21 04:52:55;;;;;;;14.25;8.05;;;9.40;76.50;;;;;;4982648;28;20053;-69
2023/04/21 04:55:22;;;;;;;17.50;8.90;;;9.30;76.40;;;;;;4986045;28;20558;-69
2023/04/21 04:57:49;;;;;;;16.53;8.17;;;9.30;76.30;;;;;;4983059;28;20089;-70
2023/04/21 05:00:16;;;;;;;15.73;8.25;;;9.20;76.50;;;;;;4984543;28;20154;-69
2023/04/21 05:02:43;;;;;;;17.48;8.60;;;9.30;76.40;;;;;;4983829;28;20054;-69
2023/04/21 05:05:10;;;;;;;14.63;7.95;;;9.30;76.50;;;;;;4978453;28;20055;-69
2023/04/21 05:07:38;;;;;;;17.95;9.27;;;9.30;76.40;;;;;;4983567;28;20056;-69
2023/04/21 05:10:06;;;;;;;15.53;8.77;;;9.20;76.50;;;;;;4986142;28;21692;-69
2023/04/21 05:12:33;;;;;;;16.33;8.65;;;9.20;76.50;;;;;;4984850;28;20423;-69
2023/04/21 05:14:59;;;;;;;16.70;8.77;;;9.30;76.70;;;;;;4979670;28;20106;-69
2023/04/21 05:17:27;;;;;;;14.73;8.63;;;9.20;76.70;;;;;;5002374;28;20044;-69
2023/04/21 05:19:54;;;;;;;18.30;8.77;;;9.20;76.70;;;;;;4980425;28;20154;-69
2023/04/21 05:22:21;;;;;;;15.03;7.87;;;9.30;76.60;;;;;;4983640;28;20525;-69
2023/04/21 05:24:49;;;;;;;14.52;8.88;;;9.20;76.80;;;;;;4982566;28;20632;-69
2023/04/21 05:27:16;;;;;;;16.80;8.30;;;9.20;76.70;;;;;;4982418;28;20113;-69
2023/04/21 05:29:43;;;;;;;13.93;8.00;;;9.20;76.80;;;;;;4986042;28;20735;-69
2023/04/21 05:32:11;;;;;;;15.98;8.65;;;9.20;76.80;;;;;;4998370;28;20133;-69
2023/04/21 05:34:38;;;;;;;13.80;8.20;;;9.20;76.70;;;;;;4986704;28;20126;-69
2023/04/21 05:37:05;;;;;;;12.98;8.05;;;9.30;76.80;;;;;;4982767;28;20055;-69
2023/04/21 05:39:31;;;;;;;15.15;8.00;;;9.20;76.90;;;;;;4983346;28;20051;-69
2023/04/21 05:42:01;;;;;;;14.30;8.40;;;9.30;77.10;;;;;;4986386;28;20109;-69
2023/04/21 05:44:28;;;;;;;16.27;8.45;;;9.30;77.00;;;;;;4985555;28;20050;-69
2023/04/21 05:46:55;;;;;;;15.27;8.17;;;9.30;77.20;;;;;;4985743;28;20118;-69
2023/04/21 05:49:22;;;;;;;13.65;8.10;;;9.30;77.10;;;;;;4982350;28;20055;-69
2023/04/21 05:51:49;;;;;;;14.32;7.75;;;9.30;77.20;;;;;;4984312;28;20047;-69
2023/04/21 05:54:16;;;;;;;14.93;8.57;;;9.30;77.50;;;;;;4966753;28;20082;-69
2023/04/21 05:56:43;;;;;;;15.57;8.07;;;9.40;77.30;;;;;;4984907;28;20410;-70
2023/04/21 05:59:11;;;;;;;14.37;8.37;;;9.30;77.30;;;;;;4983368;28;20133;-69
2023/04/21 06:01:38;;;;;;;13.95;7.85;;;9.40;77.50;;;;;;4985234;28;20051;-69
2023/04/21 06:04:05;;;;;;;15.43;8.60;;;9.40;77.50;;;;;;4985939;28;20053;-69
2023/04/21 06:06:32;;;;;;;14.98;8.48;;;9.40;77.40;;;;;;4984404;28;20171;-69
2023/04/21 06:08:59;;;;;;;15.45;8.40;;;9.40;77.50;;;;;;4984000;28;20109;-69
2023/04/21 06:11:26;;;;;;;14.00;8.13;;;9.40;77.50;;;;;;4983581;28;20043;-70
2023/04/21 06:13:57;;;;;;;14.35;8.32;;;9.40;77.50;;;;;;4980698;28;20051;-69
2023/04/21 06:16:25;;;;;;;14.95;8.73;;;9.40;77.50;;;;;;4986208;28;20090;-69
2023/04/21 06:18:52;;;;;;;13.25;7.63;;;9.50;77.60;;;;;;5000194;28;20051;-69
2023/04/21 06:21:19;;;;;;;15.60;8.82;;;9.50;77.90;;;;;;4985762;28;20130;-69
2023/04/21 06:23:46;;;;;;;15.20;8.47;;;9.50;77.70;;;;;;4983709;28;20611;-69
2023/04/21 06:26:13;;;;;;;13.25;7.47;;;9.60;77.90;;;;;;4981985;28;20065;-69
2023/04/21 06:28:40;;;;;;;14.85;8.43;;;9.60;77.70;;;;;;4983009;28;20411;-69
2023/04/21 06:31:08;;;;;;;16.60;8.13;;;9.70;77.70;;;;;;4979725;28;20121;-69
2023/04/21 06:33:37;;;;;;;13.93;7.80;;;9.70;77.90;;;;;;4983317;28;20146;-69
2023/04/21 06:36:04;;;;;;;15.20;7.77;;;9.70;78.00;;;;;;4984094;28;20070;-69
2023/04/21 06:38:31;;;;;;;14.27;7.35;;;9.70;77.90;;;;;;4965101;28;20061;-69
2023/04/21 06:40:58;;;;;;;16.67;8.10;;;9.80;78.00;;;;;;4982214;28;20055;-70
2023/04/21 06:43:25;;;;;;;14.85;7.90;;;9.80;77.90;;;;;;4980780;28;20101;-69
2023/04/21 06:45:52;;;;;;;13.75;7.32;;;9.80;78.00;;;;;;4963576;28;20142;-70
2023/04/21 06:48:19;;;;;;;14.97;7.80;;;9.90;77.90;;;;;;4986097;28;20189;-70
2023/04/21 06:50:48;;;;;;;16.13;8.32;;;10.00;78.10;;;;;;4970563;28;20139;-70
2023/04/21 06:53:16;;;;;;;17.75;7.30;;;10.00;77.90;;;;;;4980895;28;20086;-70
2023/04/21 06:55:43;;;;;;;14.55;8.27;;;10.00;77.90;;;;;;4986334;28;20542;-70
2023/04/21 06:58:11;;;;;;;13.63;7.13;;;10.10;77.80;;;;;;4986048;28;20646;-69
2023/04/21 07:00:38;;;;;;;14.60;6.83;;;10.10;77.80;;;;;;4981152;28;20055;-69
2023/04/21 07:03:05;;;;;;;14.32;8.02;;;10.20;77.90;;;;;;4985498;28;20174;-70
2023/04/21 07:05:33;;;;;;;14.35;7.40;;;10.20;77.90;;;;;;4985364;28;20603;-71
2023/04/21 07:08:01;;;;;;;15.45;7.50;;;10.20;77.90;;;;;;4982211;28;20047;-70
2023/04/21 07:10:28;;;;;;;14.80;7.75;;;10.30;77.80;;;;;;4962693;28;20051;-70
2023/04/21 07:12:55;;;;;;;11.63;7.37;;;10.30;77.70;;;;;;4982496;28;20054;-70
2023/04/21 07:15:22;;;;;;;17.23;7.38;;;10.40;78.10;;;;;;4984751;28;20304;-71
2023/04/21 07:17:50;;;;;;;12.70;6.60;;;10.40;78.00;;;;;;4984863;28;20062;-71
2023/04/21 07:20:17;;;;;;;14.93;7.07;;;10.50;78.20;;;;;;4984326;28;20488;-70
2023/04/21 07:22:44;;;;;;;13.75;7.03;;;10.50;77.70;;;;;;4988163;28;20066;-70
2023/04/21 07:25:12;;;;;;;12.57;7.40;;;10.60;77.80;;;;;;4983911;28;20640;-70
2023/04/21 07:27:39;;;;;;;13.15;7.40;;;10.60;77.70;;;;;;4985517;28;20057;-70
2023/04/21 07:30:07;;;;;;;13.60;7.60;;;10.70;77.70;;;;;;4985502;28;20069;-70
2023/04/21 07:32:36;;;;;;;13.80;7.53;;;10.70;77.70;;;;;;4983149;28;20776;-70
2023/04/21 07:35:03;;;;;;;14.30;7.70;;;10.80;77.60;;;;;;4984539;28;20054;-70
2023/04/21 07:37:30;;;;;;;13.20;7.73;;;10.80;77.50;;;;;;4986172;28;20063;-69
2023/04/21 07:39:57;;;;;;;13.18;7.38;;;10.90;77.40;;;;;;4984558;28;20047;-70
2023/04/21 07:42:25;;;;;;;12.98;7.53;;;10.90;77.40;;;;;;4979472;28;20054;-70
2023/04/21 07:44:53;;;;;;;16.30;7.65;;;11.00;77.30;;;;;;4983547;28;20062;-70
2023/04/21 07:47:20;;;;;;;12.93;6.97;;;11.00;77.40;;;;;;4984097;28;20121;-69
2023/04/21 07:49:47;;;;;;;14.70;7.37;;;11.00;77.30;;;;;;4982811;28;20055;-70
2023/04/21 07:52:14;;;;;;;15.38;7.30;;;11.10;77.30;;;;;;4995649;28;20573;-70
2023/04/21 07:54:41;;;;;;;14.27;7.78;;;11.10;77.30;;;;;;4994320;28;20047;-70
2023/04/21 07:57:08;;;;;;;11.60;7.07;;;11.10;77.20;;;;;;4984410;28;20608;-70
2023/04/21 07:59:36;;;;;;;23.67;8.88;;;11.20;77.20;;;;;;4978835;28;20138;-70
2023/04/21 08:02:03;;;;;;;13.97;7.57;;;11.30;77.30;;;;;;4985707;28;20061;-70
2023/04/21 08:04:31;;;;;;;17.50;7.65;;;11.30;77.30;;;;;;4987472;28;20243;-70
2023/04/21 08:06:58;;;;;;;15.88;8.20;;;11.40;77.30;;;;;;4983557;28;20055;-70
2023/04/21 08:09:25;;;;;;;14.00;8.05;;;11.40;77.20;;;;;;4979426;28;20047;-70
2023/04/21 08:11:52;;;;;;;14.73;8.23;;;11.50;77.10;;;;;;4986841;28;20043;-70
2023/04/21 08:14:19;;;;;;;12.20;7.40;;;11.50;77.00;;;;;;4974580;28;20087;-70
2023/04/21 08:16:47;;;;;;;12.05;7.50;;;11.60;77.00;;;;;;4987757;28;20043;-70
2023/04/21 08:19:14;;;;;;;14.35;7.65;;;11.70;77.00;;;;;;4986588;28;20085;-69
2023/04/21 08:21:41;;;;;;;12.25;7.45;;;11.70;76.80;;;;;;4985744;28;20057;-70
2023/04/21 08:24:08;;;;;;;15.07;8.13;;;11.80;76.60;;;;;;4986047;28;20051;-70
2023/04/21 08:26:35;;;;;;;14.33;8.00;;;11.90;76.50;;;;;;4988421;28;20058;-70
2023/04/21 08:29:02;;;;;;;12.88;7.68;;;11.90;76.30;;;;;;4985243;28;20155;-70
2023/04/21 08:31:29;;;;;;;18.30;8.40;;;11.90;76.20;;;;;;4983269;28;20077;-70
2023/04/21 08:34:00;;;;;;;13.85;8.30;;;12.00;76.30;;;;;;4993981;28;20059;-70
2023/04/21 08:36:27;;;;;;;13.35;7.85;;;12.00;76.40;;;;;;4984229;28;20047;-70
2023/04/21 08:38:54;;;;;;;13.67;7.60;;;12.10;76.40;;;;;;4985562;28;20043;-70
2023/04/21 08:41:21;;;;;;;14.55;7.95;;;12.20;76.40;;;;;;4982278;28;20058;-70
2023/04/21 08:43:49;;;;;;;16.20;8.10;;;12.20;76.20;;;;;;4986268;28;20062;-73
2023/04/21 08:46:16;;;;;;;13.98;8.27;;;12.30;76.20;;;;;;4987201;28;20047;-70
2023/04/21 08:48:43;;;;;;;16.95;8.65;;;12.30;75.90;;;;;;4983384;28;20577;-71
2023/04/21 08:51:14;;;;;;;14.30;7.93;;;12.40;75.80;;;;;;4982229;28;20054;-70
2023/04/21 08:53:41;;;;;;;16.48;8.30;;;12.50;75.70;;;;;;4978859;28;20134;-70
2023/04/21 08:56:08;;;;;;;16.02;8.13;;;12.50;75.70;;;;;;4978495;28;20059;-71
2023/04/21 08:58:35;;;;;;;14.80;7.65;;;12.50;75.70;;;;;;4981895;28;20675;-71
2023/04/21 09:01:02;;;;;;;15.65;8.93;;;12.70;75.50;;;;;;4976130;28;20060;-70
2023/04/21 09:03:30;;;;;;;14.43;8.30;;;12.70;75.00;;;;;;4985100;28;20057;-70
2023/04/21 09:05:58;;;;;;;21.52;8.13;;;12.80;75.00;;;;;;4982979;28;20050;-70
2023/04/21 09:08:28;;;;;;;13.73;8.02;;;12.90;74.80;;;;;;4982113;28;20047;-70
2023/04/21 09:10:56;;;;;;;19.55;8.70;;;12.90;74.80;;;;;;4983148;28;20051;-71
2023/04/21 09:13:30;;;;;;;15.60;7.93;;;13.00;74.70;;;;;;4982506;28;20051;-70
2023/04/21 09:15:57;;;;;;;15.53;8.53;;;13.10;74.70;;;;;;4983724;28;20514;-70
2023/04/21 09:18:26;;;;;;;18.40;8.40;;;13.10;74.40;;;;;;4998129;28;20502;-70
2023/04/21 09:21:06;;;;;;;17.55;8.52;;;13.30;74.10;;;;;;5000355;28;20505;-71
2023/04/21 09:23:41;;;;;;;15.20;8.48;;;13.30;73.70;;;;;;4982558;28;20467;-71
2023/04/21 09:26:08;;;;;;;14.43;8.10;;;13.40;73.20;;;;;;4997559;28;20053;-71
2023/04/21 09:28:35;;;;;;;14.90;8.37;;;13.50;72.70;;;;;;4984991;28;20047;-71
2023/04/21 09:31:02;;;;;;;16.02;9.32;;;13.50;72.70;;;;;;4998065;28;20054;-71
2023/04/21 09:33:33;;;;;;;15.65;8.32;;;13.60;72.50;;;;;;5000522;28;20063;-70
2023/04/21 09:36:02;;;;;;;12.68;8.20;;;13.60;72.40;;;;;;4980192;28;20073;-70
2023/04/21 09:38:28;;;;;;;16.60;8.95;;;13.70;72.50;;;;;;4985253;28;20474;-70
2023/04/21 09:41:00;;;;;;;15.40;7.07;;;13.80;72.20;;;;;;4979323;28;20077;-70
2023/04/21 09:43:27;;;;;;;13.45;7.70;;;13.90;72.20;;;;;;4982867;28;20054;-70
2023/04/21 09:45:55;;;;;;;17.75;7.97;;;13.90;71.60;;;;;;5001268;28;20047;-71
2023/04/21 09:48:28;;;;;;;14.63;8.38;;;14.00;71.60;;;;;;4982469;28;20194;-70
2023/04/21 09:50:57;;;;;;;14.88;8.75;;;14.10;71.40;;;;;;4977877;28;20159;-70
2023/04/21 09:53:27;;;;;;;14.60;7.83;;;14.20;71.20;;;;;;4985240;28;20061;-70
2023/04/21 09:55:56;;;;;;;15.65;8.73;;;14.20;71.30;;;;;;4985954;28;20749;-70
2023/04/21 09:58:28;;;;;;;13.82;8.70;;;14.30;71.00;;;;;;4984415;28;20592;-70
2023/04/21 10:00:56;;;;;;;15.73;9.10;;;14.40;70.90;;;;;;4965693;28;20047;-70
2023/04/21 10:03:27;;;;;;;16.13;8.95;;;14.40;71.10;;;;;;4987833;28;20051;-70
2023/04/21 10:05:54;;;;;;;12.83;8.40;;;14.50;71.40;;;;;;4986289;28;20059;-70
2023/04/21 10:08:22;;;;;;;15.93;8.38;;;14.70;70.10;;;;;;4979287;28;20051;-70
2023/04/21 10:10:51;;;;;;;13.70;8.52;;;14.80;70.10;;;;;;4975858;28;20055;-69
2023/04/21 10:13:18;;;;;;;15.13;8.13;;;14.90;70.10;;;;;;4987092;28;20054;-69
2023/04/21 10:15:47;;;;;;;14.65;8.63;;;15.00;70.20;;;;;;4987452;28;20142;-69
2023/04/21 10:18:16;;;;;;;13.47;7.43;;;15.00;70.30;;;;;;4997348;28;20051;-70
2023/04/21 10:20:54;;;;;;;13.38;7.95;;;15.20;69.80;;;;;;4964143;28;20047;-70
2023/04/21 10:23:32;;;;;;;13.23;7.72;;;15.30;68.20;;;;;;4977863;28;20054;-70
2023/04/21 10:26:10;;;;;;;16.65;8.65;;;15.30;67.60;;;;;;4985655;28;20134;-70
2023/04/21 10:28:45;;;;;;;13.95;8.07;;;15.40;67.70;;;;;;4984905;28;20612;-70
2023/04/21 10:31:27;;;;;;;14.10;8.53;;;15.40;67.50;;;;;;4994624;28;20508;-70
2023/04/21 10:34:16;;;;;;;17.55;8.30;;;15.50;67.30;;;;;;4985319;28;20538;-70
2023/04/21 10:37:06;;;;;;;14.68;8.40;;;15.50;67.10;;;;;;4980160;28;20059;-70
2023/04/21 10:39:35;;;;;;;21.52;8.82;;;15.60;67.60;;;;;;4983441;28;20358;-71
2023/04/21 10:42:35;;;;;;;17.45;9.05;;;15.70;67.60;;;;;;4984669;28;20062;-70
2023/04/21 10:45:10;;;;;;;14.97;8.67;;;15.80;66.10;;;;;;4988380;28;20055;-70
2023/04/21 10:47:47;;;;;;;14.05;8.90;;;15.80;65.30;;;;;;4989620;28;20575;-70
2023/04/21 10:50:17;;;;;;;15.00;8.48;;;15.90;65.00;;;;;;4989126;28;20090;-70
2023/04/21 10:52:46;;;;;;;16.50;8.57;;;16.00;65.20;;;;;;5002171;28;20059;-70
2023/04/21 10:55:14;;;;;;;14.32;8.45;;;16.00;64.20;;;;;;4989727;28;20055;-70
2023/04/21 10:57:45;;;;;;;13.57;8.30;;;16.00;64.50;;;;;;4972444;28;20502;-70
2023/04/21 11:00:15;;;;;;;14.95;9.05;;;16.00;64.60;;;;;;4969344;28;20046;-70
2023/04/21 11:02:44;;;;;;;13.10;7.93;;;16.10;64.40;;;;;;4986670;28;20658;-70
2023/04/21 11:05:11;;;;;;;16.48;8.48;;;16.10;64.20;;;;;;4991122;28;20137;-70
2023/04/21 11:07:38;;;;;;;14.52;8.43;;;16.10;64.40;;;;;;4990897;28;20065;-70
2023/04/21 11:10:06;;;;;;;15.70;8.30;;;16.10;63.90;;;;;;4983088;28;20540;-70
2023/04/21 11:12:36;;;;;;;15.20;8.32;;;16.10;63.90;;;;;;4969817;28;20051;-70
2023/04/21 11:15:07;;;;;;;13.15;8.45;;;16.10;64.10;;;;;;4976730;28;20536;-70
2023/04/21 11:17:34;;;;;;;15.95;8.68;;;16.10;64.40;;;;;;4971422;28;20051;-70
2023/04/21 11:20:05;;;;;;;14.18;8.85;;;16.20;64.80;;;;;;4986302;28;20507;-70
2023/04/21 11:22:33;;;;;;;14.47;8.20;;;16.20;64.30;;;;;;4990337;28;20109;-71
2023/04/21 11:25:00;;;;;;;15.05;7.80;;;16.30;64.50;;;;;;4990728;28;20054;-70
2023/04/21 11:27:28;;;;;;;14.50;7.95;;;16.40;64.50;;;;;;4983690;28;20055;-70
2023/04/21 11:29:56;;;;;;;13.95;7.53;;;16.40;64.50;;;;;;4974085;28;20043;-70
2023/04/21 11:32:23;;;;;;;12.57;7.13;;;16.50;64.30;;;;;;4970937;28;20043;-70
2023/04/21 11:34:50;;;;;;;13.80;8.20;;;16.60;63.70;;;;;;4977981;28;20055;-70
2023/04/21 11:37:27;;;;;;;13.13;8.07;;;16.60;63.30;;;;;;4988902;28;20050;-70
2023/04/21 11:39:58;;;;;;;11.90;6.70;;;16.60;63.20;;;;;;4988008;28;20054;-70
2023/04/21 11:42:25;;;;;;;13.10;6.60;;;16.70;63.40;;;;;;4982855;28;20111;-70
2023/04/21 11:44:54;;;;;;;17.60;7.00;;;16.80;63.80;;;;;;4970848;28;20126;-70
2023/04/21 11:47:23;;;;;;;11.70;6.60;;;16.80;63.30;;;;;;4976541;28;20062;-71
2023/04/21 11:49:53;;;;;;;12.98;6.63;;;16.90;62.40;;;;;;4988140;28;20391;-70
2023/04/21 11:52:23;;;;;;;11.93;6.78;;;16.90;62.10;;;;;;4988780;28;20053;-70
2023/04/21 11:54:55;;;;;;;13.20;6.30;;;17.00;62.30;;;;;;4988505;28;20054;-71
2023/04/21 11:57:24;;;;;;;10.55;5.90;;;17.10;61.40;;;;;;5004860;28;20055;-70
2023/04/21 11:59:51;;;;;;;12.03;6.07;;;17.20;61.80;;;;;;4986901;28;20082;-70
2023/04/21 12:02:23;;;;;;;11.13;6.13;;;17.40;60.80;;;;;;4990055;28;20050;-70
2023/04/21 12:05:05;;;;;;;11.10;6.50;;;17.50;60.10;;;;;;4988867;28;20062;-70
2023/04/21 12:07:35;;;;;;;13.50;6.10;;;17.50;59.70;;;;;;4984331;28;20062;-70
2023/04/21 12:10:08;;;;;;;10.43;6.05;;;17.60;59.30;;;;;;4989010;28;20059;-71
2023/04/21 12:12:37;;;;;;;11.43;5.77;;;17.80;59.20;;;;;;4989994;28;20077;-70
2023/04/21 12:15:05;;;;;;;11.77;5.72;;;17.80;59.60;;;;;;4986060;28;20058;-71
2023/04/21 12:17:38;;;;;;;12.30;5.68;;;17.90;58.70;;;;;;5004972;28;20058;-71
2023/04/21 12:20:06;;;;;;;11.07;5.47;;;18.00;58.00;;;;;;4987528;28;20271;-71
2023/04/21 12:22:34;;;;;;;10.82;5.55;;;18.00;58.20;;;;;;4989516;28;20464;-70
2023/04/21 12:25:01;;;;;;;10.27;5.50;;;18.10;57.80;;;;;;4989782;28;20086;-71
2023/04/21 12:27:28;;;;;;;9.43;5.32;;;18.10;57.40;;;;;;4989873;28;20051;-71
2023/04/21 12:29:55;;;;;;;10.73;6.10;;;18.10;56.00;;;;;;4988781;28;20537;-70
2023/04/21 12:32:23;;;;;;;9.80;5.78;;;18.10;56.20;;;;;;4986966;28;20054;-70
2023/04/21 12:34:50;;;;;;;15.00;6.03;;;18.20;56.20;;;;;;4988307;28;20050;-70
2023/04/21 12:37:18;;;;;;;11.70;5.97;;;18.20;56.90;;;;;;5004337;28;20135;-70
2023/04/21 12:39:46;;;;;;;10.75;6.22;;;18.20;56.80;;;;;;4989434;28;20133;-70
2023/04/21 12:42:13;;;;;;;11.80;5.90;;;18.20;56.90;;;;;;4983006;28;20046;-70
2023/04/21 12:44:40;;;;;;;10.38;5.80;;;18.20;56.80;;;;;;4989756;28;20501;-70